sensor_id;sensor_type;location;lat;lon;timestamp;P1;durP1;ratioP1;P2;durP2;ratioP2
37047;SDS011;23227;48.780;9.210;2022-10-03T00:01:49;5.40;;;3.38;;
37047;SDS011;23227;48.780;9.210;2022-10-03T00:05:05;6.77;;;3.50;;
37047;SDS011;23227;48.780;9.210;2022-10-03T00:08:17;6.20;;;3.13;;
37047;SDS011;23227;48.780;9.210;2022-10-03T00:11:31;5.53;;;2.93;;
37047;SDS011;23227;48.780;9.210;2022-10-03T00:14:47;6.90;;;3.30;;
37047;SDS011;23227;48.780;9.210;2022-10-03T00:17:57;4.67;;;3.20;;
37047;SDS011;23227;48.780;9.210;2022-10-03T00:21:08;4.10;;;2.90;;
37047;SDS011;23227;48.780;9.210;2022-10-03T00:24:22;7.30;;;3.55;;
37047;SDS011;23227;48.780;9.210;2022-10-03T00:27:34;5.03;;;3.73;;
37047;SDS011;23227;48.780;9.210;2022-10-03T00:30:45;6.03;;;3.40;;
37047;SDS011;23227;48.780;9.210;2022-10-03T00:33:58;5.43;;;4.83;;
37047;SDS011;23227;48.780;9.210;2022-10-03T00:37:14;7.07;;;4.40;;
37047;SDS011;23227;48.780;9.210;2022-10-03T00:40:31;6.07;;;3.70;;
37047;SDS011;23227;48.780;9.210;2022-10-03T00:43:53;6.00;;;3.20;;
37047;SDS011;23227;48.780;9.210;2022-10-03T00:47:20;7.53;;;3.83;;
37047;SDS011;23227;48.780;9.210;2022-10-03T00:50:47;5.57;;;3.80;;
37047;SDS011;23227;48.780;9.210;2022-10-03T00:53:58;6.77;;;4.40;;
37047;SDS011;23227;48.780;9.210;2022-10-03T00:57:10;7.43;;;4.20;;
37047;SDS011;23227;48.780;9.210;2022-10-03T01:00:21;6.03;;;4.32;;
37047;SDS011;23227;48.780;9.210;2022-10-03T01:03:28;6.47;;;4.77;;
37047;SDS011;23227;48.780;9.210;2022-10-03T01:06:39;8.83;;;5.47;;
37047;SDS011;23227;48.780;9.210;2022-10-03T01:09:50;7.80;;;4.43;;
37047;SDS011;23227;48.780;9.210;2022-10-03T01:13:01;6.17;;;4.57;;
37047;SDS011;23227;48.780;9.210;2022-10-03T01:16:13;5.87;;;4.10;;
37047;SDS011;23227;48.780;9.210;2022-10-03T01:19:26;6.20;;;4.13;;
37047;SDS011;23227;48.780;9.210;2022-10-03T01:26:34;8.13;;;4.30;;
37047;SDS011;23227;48.780;9.210;2022-10-03T01:29:46;7.47;;;5.77;;
37047;SDS011;23227;48.780;9.210;2022-10-03T01:33:09;10.70;;;5.70;;
37047;SDS011;23227;48.780;9.210;2022-10-03T01:36:17;10.13;;;5.97;;
37047;SDS011;23227;48.780;9.210;2022-10-03T01:39:25;13.50;;;6.70;;
37047;SDS011;23227;48.780;9.210;2022-10-03T01:42:32;9.70;;;6.87;;
37047;SDS011;23227;48.780;9.210;2022-10-03T01:45:46;9.83;;;6.13;;
37047;SDS011;23227;48.780;9.210;2022-10-03T01:48:57;10.83;;;6.73;;
37047;SDS011;23227;48.780;9.210;2022-10-03T01:52:03;14.83;;;6.60;;
37047;SDS011;23227;48.780;9.210;2022-10-03T01:55:13;9.93;;;6.37;;
37047;SDS011;23227;48.780;9.210;2022-10-03T01:58:22;10.43;;;5.93;;
37047;SDS011;23227;48.780;9.210;2022-10-03T02:01:33;9.17;;;5.87;;
37047;SDS011;23227;48.780;9.210;2022-10-03T02:04:44;10.17;;;6.50;;
37047;SDS011;23227;48.780;9.210;2022-10-03T02:07:51;7.93;;;6.10;;
37047;SDS011;23227;48.780;9.210;2022-10-03T02:10:58;9.80;;;5.90;;
37047;SDS011;23227;48.780;9.210;2022-10-03T02:14:14;12.70;;;6.97;;
37047;SDS011;23227;48.780;9.210;2022-10-03T02:17:29;8.97;;;6.40;;
37047;SDS011;23227;48.780;9.210;2022-10-03T02:23:49;15.10;;;7.22;;
37047;SDS011;23227;48.780;9.210;2022-10-03T02:27:18;11.03;;;6.90;;
37047;SDS011;23227;48.780;9.210;2022-10-03T02:30:30;12.03;;;7.53;;
37047;SDS011;23227;48.780;9.210;2022-10-03T02:33:44;11.87;;;7.10;;
37047;SDS011;23227;48.780;9.210;2022-10-03T02:37:03;13.27;;;8.00;;
37047;SDS011;23227;48.780;9.210;2022-10-03T02:43:49;13.17;;;8.10;;
37047;SDS011;23227;48.780;9.210;2022-10-03T02:47:28;12.17;;;7.17;;
37047;SDS011;23227;48.780;9.210;2022-10-03T02:50:53;12.20;;;7.60;;
37047;SDS011;23227;48.780;9.210;2022-10-03T02:54:22;10.87;;;7.07;;
37047;SDS011;23227;48.780;9.210;2022-10-03T02:57:49;12.80;;;7.60;;
37047;SDS011;23227;48.780;9.210;2022-10-03T03:04:49;11.07;;;6.83;;
37047;SDS011;23227;48.780;9.210;2022-10-03T03:08:16;11.70;;;6.53;;
37047;SDS011;23227;48.780;9.210;2022-10-03T03:11:34;13.23;;;6.63;;
37047;SDS011;23227;48.780;9.210;2022-10-03T03:14:49;11.13;;;6.23;;
37047;SDS011;23227;48.780;9.210;2022-10-03T03:18:16;13.43;;;6.73;;
37047;SDS011;23227;48.780;9.210;2022-10-03T03:21:25;12.87;;;7.77;;
37047;SDS011;23227;48.780;9.210;2022-10-03T03:24:36;16.60;;;6.90;;
37047;SDS011;23227;48.780;9.210;2022-10-03T03:28:01;10.60;;;6.10;;
37047;SDS011;23227;48.780;9.210;2022-10-03T03:31:08;12.73;;;6.30;;
37047;SDS011;23227;48.780;9.210;2022-10-03T03:34:14;12.77;;;6.90;;
37047;SDS011;23227;48.780;9.210;2022-10-03T03:37:24;16.67;;;7.47;;
37047;SDS011;23227;48.780;9.210;2022-10-03T03:40:33;14.87;;;7.17;;
37047;SDS011;23227;48.780;9.210;2022-10-03T03:43:44;8.23;;;6.77;;
37047;SDS011;23227;48.780;9.210;2022-10-03T03:47:00;10.47;;;6.37;;
37047;SDS011;23227;48.780;9.210;2022-10-03T03:50:21;11.70;;;5.87;;
37047;SDS011;23227;48.780;9.210;2022-10-03T03:53:39;9.30;;;5.57;;
37047;SDS011;23227;48.780;9.210;2022-10-03T03:56:53;11.00;;;5.97;;
37047;SDS011;23227;48.780;9.210;2022-10-03T04:00:06;8.13;;;5.63;;
37047;SDS011;23227;48.780;9.210;2022-10-03T04:03:18;11.80;;;6.43;;
37047;SDS011;23227;48.780;9.210;2022-10-03T04:06:31;11.20;;;5.93;;
37047;SDS011;23227;48.780;9.210;2022-10-03T04:13:15;9.60;;;5.97;;
37047;SDS011;23227;48.780;9.210;2022-10-03T04:16:39;10.13;;;6.47;;
37047;SDS011;23227;48.780;9.210;2022-10-03T04:20:11;14.17;;;6.53;;
37047;SDS011;23227;48.780;9.210;2022-10-03T04:23:24;7.87;;;5.87;;
37047;SDS011;23227;48.780;9.210;2022-10-03T04:26:44;10.10;;;5.63;;
37047;SDS011;23227;48.780;9.210;2022-10-03T04:29:57;11.43;;;7.00;;
37047;SDS011;23227;48.780;9.210;2022-10-03T04:33:08;11.93;;;6.67;;
37047;SDS011;23227;48.780;9.210;2022-10-03T04:39:49;13.13;;;6.20;;
37047;SDS011;23227;48.780;9.210;2022-10-03T04:43:00;13.53;;;6.07;;
37047;SDS011;23227;48.780;9.210;2022-10-03T04:46:15;10.20;;;5.80;;
37047;SDS011;23227;48.780;9.210;2022-10-03T04:49:28;8.73;;;5.97;;
37047;SDS011;23227;48.780;9.210;2022-10-03T04:52:33;9.80;;;6.27;;
37047;SDS011;23227;48.780;9.210;2022-10-03T04:55:40;13.20;;;6.33;;
37047;SDS011;23227;48.780;9.210;2022-10-03T04:58:48;10.27;;;6.20;;
37047;SDS011;23227;48.780;9.210;2022-10-03T05:01:56;16.93;;;6.90;;
37047;SDS011;23227;48.780;9.210;2022-10-03T05:05:07;17.13;;;7.07;;
37047;SDS011;23227;48.780;9.210;2022-10-03T05:08:18;17.03;;;7.47;;
37047;SDS011;23227;48.780;9.210;2022-10-03T05:11:33;13.97;;;6.40;;
37047;SDS011;23227;48.780;9.210;2022-10-03T05:18:15;13.27;;;6.73;;
37047;SDS011;23227;48.780;9.210;2022-10-03T05:21:30;14.37;;;6.57;;
37047;SDS011;23227;48.780;9.210;2022-10-03T05:24:35;11.83;;;6.43;;
37047;SDS011;23227;48.780;9.210;2022-10-03T05:27:43;11.30;;;5.77;;
37047;SDS011;23227;48.780;9.210;2022-10-03T05:30:52;14.73;;;6.80;;
37047;SDS011;23227;48.780;9.210;2022-10-03T05:34:03;11.63;;;6.50;;
37047;SDS011;23227;48.780;9.210;2022-10-03T05:37:28;9.33;;;6.20;;
37047;SDS011;23227;48.780;9.210;2022-10-03T05:40:37;18.58;;;6.03;;
37047;SDS011;23227;48.780;9.210;2022-10-03T05:43:43;13.13;;;6.40;;
37047;SDS011;23227;48.780;9.210;2022-10-03T05:46:56;10.53;;;6.77;;
37047;SDS011;23227;48.780;9.210;2022-10-03T05:50:05;12.20;;;6.40;;
37047;SDS011;23227;48.780;9.210;2022-10-03T05:53:35;15.57;;;7.37;;
37047;SDS011;23227;48.780;9.210;2022-10-03T05:56:55;19.07;;;7.80;;
37047;SDS011;23227;48.780;9.210;2022-10-03T06:00:21;14.67;;;8.37;;
37047;SDS011;23227;48.780;9.210;2022-10-03T06:03:38;13.47;;;7.87;;
37047;SDS011;23227;48.780;9.210;2022-10-03T06:07:03;16.47;;;9.33;;
37047;SDS011;23227;48.780;9.210;2022-10-03T06:13:47;21.10;;;10.13;;
37047;SDS011;23227;48.780;9.210;2022-10-03T06:17:07;18.13;;;9.60;;
37047;SDS011;23227;48.780;9.210;2022-10-03T06:20:53;21.10;;;11.03;;
37047;SDS011;23227;48.780;9.210;2022-10-03T06:24:30;23.47;;;11.37;;
37047;SDS011;23227;48.780;9.210;2022-10-03T06:31:58;23.63;;;11.07;;
37047;SDS011;23227;48.780;9.210;2022-10-03T06:43:04;20.13;;;8.80;;
37047;SDS011;23227;48.780;9.210;2022-10-03T06:46:46;18.40;;;8.83;;
37047;SDS011;23227;48.780;9.210;2022-10-03T06:53:37;15.07;;;8.40;;
37047;SDS011;23227;48.780;9.210;2022-10-03T06:56:56;16.60;;;9.07;;
37047;SDS011;23227;48.780;9.210;2022-10-03T07:00:10;18.30;;;9.47;;
37047;SDS011;23227;48.780;9.210;2022-10-03T07:10:15;19.33;;;10.27;;
37047;SDS011;23227;48.780;9.210;2022-10-03T07:13:32;17.53;;;9.27;;
37047;SDS011;23227;48.780;9.210;2022-10-03T07:17:05;20.13;;;9.57;;
37047;SDS011;23227;48.780;9.210;2022-10-03T07:23:53;23.33;;;8.87;;
37047;SDS011;23227;48.780;9.210;2022-10-03T07:27:11;15.50;;;8.93;;
37047;SDS011;23227;48.780;9.210;2022-10-03T07:30:22;22.17;;;10.07;;
37047;SDS011;23227;48.780;9.210;2022-10-03T07:37:03;21.77;;;9.07;;
37047;SDS011;23227;48.780;9.210;2022-10-03T07:40:54;22.03;;;9.87;;
37047;SDS011;23227;48.780;9.210;2022-10-03T07:44:08;17.90;;;8.93;;
37047;SDS011;23227;48.780;9.210;2022-10-03T07:47:33;17.97;;;9.27;;
37047;SDS011;23227;48.780;9.210;2022-10-03T07:50:48;15.50;;;9.07;;
37047;SDS011;23227;48.780;9.210;2022-10-03T08:01:06;15.30;;;8.30;;
37047;SDS011;23227;48.780;9.210;2022-10-03T08:04:31;16.70;;;8.70;;
37047;SDS011;23227;48.780;9.210;2022-10-03T08:07:50;16.87;;;8.73;;
37047;SDS011;23227;48.780;9.210;2022-10-03T08:11:12;14.57;;;8.23;;
37047;SDS011;23227;48.780;9.210;2022-10-03T08:14:28;19.93;;;7.73;;
37047;SDS011;23227;48.780;9.210;2022-10-03T08:21:22;14.23;;;7.10;;
37047;SDS011;23227;48.780;9.210;2022-10-03T08:24:38;14.50;;;6.83;;
37047;SDS011;23227;48.780;9.210;2022-10-03T08:28:15;13.63;;;6.47;;
37047;SDS011;23227;48.780;9.210;2022-10-03T08:31:32;18.07;;;6.43;;
37047;SDS011;23227;48.780;9.210;2022-10-03T08:35:22;13.07;;;5.83;;
37047;SDS011;23227;48.780;9.210;2022-10-03T08:38:40;13.97;;;5.57;;
37047;SDS011;23227;48.780;9.210;2022-10-03T08:45:42;11.83;;;4.60;;
37047;SDS011;23227;48.780;9.210;2022-10-03T08:48:54;13.07;;;4.43;;
37047;SDS011;23227;48.780;9.210;2022-10-03T08:55:30;16.10;;;5.13;;
37047;SDS011;23227;48.780;9.210;2022-10-03T09:02:57;11.87;;;4.43;;
37047;SDS011;23227;48.780;9.210;2022-10-03T09:10:24;10.67;;;4.20;;
37047;SDS011;23227;48.780;9.210;2022-10-03T09:13:49;17.30;;;4.87;;
37047;SDS011;23227;48.780;9.210;2022-10-03T09:17:19;14.77;;;5.73;;
37047;SDS011;23227;48.780;9.210;2022-10-03T09:20:42;12.07;;;5.40;;
37047;SDS011;23227;48.780;9.210;2022-10-03T09:24:15;13.50;;;5.53;;
37047;SDS011;23227;48.780;9.210;2022-10-03T09:27:56;11.33;;;4.67;;
37047;SDS011;23227;48.780;9.210;2022-10-03T09:31:37;10.50;;;5.03;;
37047;SDS011;23227;48.780;9.210;2022-10-03T09:46:04;9.40;;;3.93;;
37047;SDS011;23227;48.780;9.210;2022-10-03T09:49:34;13.53;;;5.30;;
37047;SDS011;23227;48.780;9.210;2022-10-03T09:52:55;8.90;;;4.27;;
37047;SDS011;23227;48.780;9.210;2022-10-03T09:56:22;11.53;;;4.37;;
37047;SDS011;23227;48.780;9.210;2022-10-03T09:59:47;7.80;;;4.37;;
37047;SDS011;23227;48.780;9.210;2022-10-03T10:07:00;11.57;;;3.13;;
37047;SDS011;23227;48.780;9.210;2022-10-03T10:14:25;14.03;;;4.10;;
37047;SDS011;23227;48.780;9.210;2022-10-03T10:17:43;6.20;;;2.83;;
37047;SDS011;23227;48.780;9.210;2022-10-03T10:36:15;9.27;;;3.10;;
37047;SDS011;23227;48.780;9.210;2022-10-03T10:39:50;10.43;;;2.70;;
37047;SDS011;23227;48.780;9.210;2022-10-03T10:43:17;9.33;;;3.13;;
37047;SDS011;23227;48.780;9.210;2022-10-03T10:54:08;4.60;;;2.90;;
37047;SDS011;23227;48.780;9.210;2022-10-03T11:01:30;4.83;;;2.40;;
37047;SDS011;23227;48.780;9.210;2022-10-03T11:12:23;6.70;;;3.07;;
37047;SDS011;23227;48.780;9.210;2022-10-03T11:19:47;9.67;;;3.13;;
37047;SDS011;23227;48.780;9.210;2022-10-03T11:23:16;14.67;;;3.60;;
37047;SDS011;23227;48.780;9.210;2022-10-03T11:26:37;12.10;;;3.53;;
37047;SDS011;23227;48.780;9.210;2022-10-03T11:30:14;10.10;;;3.60;;
37047;SDS011;23227;48.780;9.210;2022-10-03T11:37:08;8.70;;;3.17;;
37047;SDS011;23227;48.780;9.210;2022-10-03T11:40:23;7.17;;;2.93;;
37047;SDS011;23227;48.780;9.210;2022-10-03T11:43:39;15.37;;;3.13;;
37047;SDS011;23227;48.780;9.210;2022-10-03T11:50:42;8.70;;;3.90;;
37047;SDS011;23227;48.780;9.210;2022-10-03T11:53:49;7.13;;;3.40;;
37047;SDS011;23227;48.780;9.210;2022-10-03T11:57:15;7.17;;;2.90;;
37047;SDS011;23227;48.780;9.210;2022-10-03T12:00:21;11.77;;;3.03;;
37047;SDS011;23227;48.780;9.210;2022-10-03T12:03:24;7.53;;;2.70;;
37047;SDS011;23227;48.780;9.210;2022-10-03T12:06:45;8.77;;;2.20;;
37047;SDS011;23227;48.780;9.210;2022-10-03T12:10:17;5.10;;;1.83;;
37047;SDS011;23227;48.780;9.210;2022-10-03T12:13:28;9.17;;;2.70;;
37047;SDS011;23227;48.780;9.210;2022-10-03T12:16:36;6.40;;;2.60;;
37047;SDS011;23227;48.780;9.210;2022-10-03T12:19:54;7.23;;;2.80;;
37047;SDS011;23227;48.780;9.210;2022-10-03T12:23:01;10.37;;;2.13;;
37047;SDS011;23227;48.780;9.210;2022-10-03T12:26:12;4.63;;;1.50;;
37047;SDS011;23227;48.780;9.210;2022-10-03T12:29:18;6.03;;;2.30;;
37047;SDS011;23227;48.780;9.210;2022-10-03T12:32:25;3.77;;;1.53;;
37047;SDS011;23227;48.780;9.210;2022-10-03T12:35:34;8.13;;;1.70;;
37047;SDS011;23227;48.780;9.210;2022-10-03T12:38:43;5.10;;;1.80;;
37047;SDS011;23227;48.780;9.210;2022-10-03T12:41:56;5.83;;;2.10;;
37047;SDS011;23227;48.780;9.210;2022-10-03T12:45:12;7.83;;;2.03;;
37047;SDS011;23227;48.780;9.210;2022-10-03T12:48:35;10.90;;;2.33;;
37047;SDS011;23227;48.780;9.210;2022-10-03T12:51:49;6.93;;;1.67;;
37047;SDS011;23227;48.780;9.210;2022-10-03T12:54:58;7.17;;;2.70;;
37047;SDS011;23227;48.780;9.210;2022-10-03T12:58:20;9.10;;;2.17;;
37047;SDS011;23227;48.780;9.210;2022-10-03T13:01:33;4.50;;;1.67;;
37047;SDS011;23227;48.780;9.210;2022-10-03T13:04:44;7.80;;;2.30;;
37047;SDS011;23227;48.780;9.210;2022-10-03T13:07:57;6.38;;;1.90;;
37047;SDS011;23227;48.780;9.210;2022-10-03T13:11:07;3.60;;;1.60;;
37047;SDS011;23227;48.780;9.210;2022-10-03T13:14:21;7.20;;;2.57;;
37047;SDS011;23227;48.780;9.210;2022-10-03T13:17:30;7.78;;;2.38;;
37047;SDS011;23227;48.780;9.210;2022-10-03T13:20:37;11.48;;;2.67;;
37047;SDS011;23227;48.780;9.210;2022-10-03T13:23:44;8.47;;;2.30;;
37047;SDS011;23227;48.780;9.210;2022-10-03T13:26:51;4.33;;;1.93;;
37047;SDS011;23227;48.780;9.210;2022-10-03T13:30:13;9.00;;;1.93;;
37047;SDS011;23227;48.780;9.210;2022-10-03T13:33:20;6.33;;;2.30;;
37047;SDS011;23227;48.780;9.210;2022-10-03T13:36:25;7.97;;;2.00;;
37047;SDS011;23227;48.780;9.210;2022-10-03T13:39:35;7.40;;;1.83;;
37047;SDS011;23227;48.780;9.210;2022-10-03T13:42:45;6.20;;;1.80;;
37047;SDS011;23227;48.780;9.210;2022-10-03T13:45:54;5.03;;;1.73;;
37047;SDS011;23227;48.780;9.210;2022-10-03T13:48:58;6.10;;;1.70;;
37047;SDS011;23227;48.780;9.210;2022-10-03T13:52:03;5.13;;;1.63;;
37047;SDS011;23227;48.780;9.210;2022-10-03T13:55:24;7.13;;;1.83;;
37047;SDS011;23227;48.780;9.210;2022-10-03T13:58:34;6.88;;;1.67;;
37047;SDS011;23227;48.780;9.210;2022-10-03T14:01:47;6.25;;;1.58;;
37047;SDS011;23227;48.780;9.210;2022-10-03T14:05:01;5.60;;;1.63;;
37047;SDS011;23227;48.780;9.210;2022-10-03T14:08:11;6.03;;;1.40;;
37047;SDS011;23227;48.780;9.210;2022-10-03T14:11:25;4.23;;;1.50;;
37047;SDS011;23227;48.780;9.210;2022-10-03T14:14:42;4.40;;;1.45;;
37047;SDS011;23227;48.780;9.210;2022-10-03T14:17:55;3.72;;;1.80;;
37047;SDS011;23227;48.780;9.210;2022-10-03T14:21:20;7.47;;;2.30;;
37047;SDS011;23227;48.780;9.210;2022-10-03T14:24:35;5.28;;;1.38;;
37047;SDS011;23227;48.780;9.210;2022-10-03T14:27:48;7.63;;;1.65;;
37047;SDS011;23227;48.780;9.210;2022-10-03T14:30:55;6.90;;;1.25;;
37047;SDS011;23227;48.780;9.210;2022-10-03T14:34:10;4.60;;;1.33;;
37047;SDS011;23227;48.780;9.210;2022-10-03T14:37:30;2.75;;;1.10;;
37047;SDS011;23227;48.780;9.210;2022-10-03T14:40:41;9.63;;;1.85;;
37047;SDS011;23227;48.780;9.210;2022-10-03T14:43:48;7.80;;;1.45;;
37047;SDS011;23227;48.780;9.210;2022-10-03T14:46:55;5.32;;;1.30;;
37047;SDS011;23227;48.780;9.210;2022-10-03T14:50:01;5.55;;;1.45;;
37047;SDS011;23227;48.780;9.210;2022-10-03T14:53:06;5.95;;;1.67;;
37047;SDS011;23227;48.780;9.210;2022-10-03T14:56:11;6.10;;;1.80;;
37047;SDS011;23227;48.780;9.210;2022-10-03T14:59:17;4.55;;;1.20;;
37047;SDS011;23227;48.780;9.210;2022-10-03T15:02:24;7.45;;;1.30;;
37047;SDS011;23227;48.780;9.210;2022-10-03T15:05:33;4.57;;;1.52;;
37047;SDS011;23227;48.780;9.210;2022-10-03T15:08:39;5.53;;;1.20;;
37047;SDS011;23227;48.780;9.210;2022-10-03T15:11:46;7.18;;;1.75;;
37047;SDS011;23227;48.780;9.210;2022-10-03T15:14:52;7.05;;;1.52;;
37047;SDS011;23227;48.780;9.210;2022-10-03T15:17:58;4.90;;;1.20;;
37047;SDS011;23227;48.780;9.210;2022-10-03T15:21:05;4.30;;;1.10;;
37047;SDS011;23227;48.780;9.210;2022-10-03T15:24:16;4.90;;;1.40;;
37047;SDS011;23227;48.780;9.210;2022-10-03T15:27:25;7.70;;;1.90;;
37047;SDS011;23227;48.780;9.210;2022-10-03T15:30:30;4.43;;;1.42;;
37047;SDS011;23227;48.780;9.210;2022-10-03T15:33:36;4.15;;;1.40;;
37047;SDS011;23227;48.780;9.210;2022-10-03T15:36:41;7.15;;;1.58;;
37047;SDS011;23227;48.780;9.210;2022-10-03T15:39:48;8.20;;;1.50;;
37047;SDS011;23227;48.780;9.210;2022-10-03T15:43:00;5.10;;;1.92;;
37047;SDS011;23227;48.780;9.210;2022-10-03T15:46:05;5.28;;;1.63;;
37047;SDS011;23227;48.780;9.210;2022-10-03T15:49:15;4.38;;;1.70;;
37047;SDS011;23227;48.780;9.210;2022-10-03T15:52:25;4.77;;;1.33;;
37047;SDS011;23227;48.780;9.210;2022-10-03T15:55:33;4.17;;;1.67;;
37047;SDS011;23227;48.780;9.210;2022-10-03T15:58:42;7.37;;;2.00;;
37047;SDS011;23227;48.780;9.210;2022-10-03T16:01:48;4.00;;;1.70;;
37047;SDS011;23227;48.780;9.210;2022-10-03T16:04:53;3.23;;;1.60;;
37047;SDS011;23227;48.780;9.210;2022-10-03T16:08:00;7.03;;;1.63;;
37047;SDS011;23227;48.780;9.210;2022-10-03T16:11:06;7.57;;;1.80;;
37047;SDS011;23227;48.780;9.210;2022-10-03T16:14:15;4.33;;;1.37;;
37047;SDS011;23227;48.780;9.210;2022-10-03T16:17:20;8.23;;;1.53;;
37047;SDS011;23227;48.780;9.210;2022-10-03T16:20:29;11.20;;;2.00;;
37047;SDS011;23227;48.780;9.210;2022-10-03T16:23:37;5.40;;;1.90;;
37047;SDS011;23227;48.780;9.210;2022-10-03T16:26:43;6.27;;;2.03;;
37047;SDS011;23227;48.780;9.210;2022-10-03T16:29:51;4.83;;;1.77;;
37047;SDS011;23227;48.780;9.210;2022-10-03T16:33:01;7.53;;;2.23;;
37047;SDS011;23227;48.780;9.210;2022-10-03T16:36:07;7.03;;;1.90;;
37047;SDS011;23227;48.780;9.210;2022-10-03T16:39:18;6.77;;;2.00;;
37047;SDS011;23227;48.780;9.210;2022-10-03T16:42:23;5.40;;;2.10;;
37047;SDS011;23227;48.780;9.210;2022-10-03T16:45:30;7.73;;;2.00;;
37047;SDS011;23227;48.780;9.210;2022-10-03T16:48:34;5.07;;;1.93;;
37047;SDS011;23227;48.780;9.210;2022-10-03T16:51:56;8.03;;;2.33;;
37047;SDS011;23227;48.780;9.210;2022-10-03T16:55:04;5.77;;;2.40;;
37047;SDS011;23227;48.780;9.210;2022-10-03T16:58:13;6.80;;;3.03;;
37047;SDS011;23227;48.780;9.210;2022-10-03T17:01:28;8.27;;;3.00;;
37047;SDS011;23227;48.780;9.210;2022-10-03T17:04:35;8.80;;;4.95;;
37047;SDS011;23227;48.780;9.210;2022-10-03T17:07:39;7.97;;;4.43;;
37047;SDS011;23227;48.780;9.210;2022-10-03T17:10:46;9.43;;;4.37;;
37047;SDS011;23227;48.780;9.210;2022-10-03T17:13:55;9.77;;;4.20;;
37047;SDS011;23227;48.780;9.210;2022-10-03T17:17:02;11.07;;;3.80;;
37047;SDS011;23227;48.780;9.210;2022-10-03T17:20:10;6.83;;;3.20;;
37047;SDS011;23227;48.780;9.210;2022-10-03T17:23:19;8.90;;;3.20;;
37047;SDS011;23227;48.780;9.210;2022-10-03T17:26:28;12.27;;;4.00;;
37047;SDS011;23227;48.780;9.210;2022-10-03T17:29:34;7.07;;;3.90;;
37047;SDS011;23227;48.780;9.210;2022-10-03T17:32:42;10.13;;;4.60;;
37047;SDS011;23227;48.780;9.210;2022-10-03T17:35:52;13.97;;;4.23;;
37047;SDS011;23227;48.780;9.210;2022-10-03T17:39:01;16.07;;;4.70;;
37047;SDS011;23227;48.780;9.210;2022-10-03T17:42:09;10.67;;;4.83;;
37047;SDS011;23227;48.780;9.210;2022-10-03T17:45:25;12.20;;;5.17;;
37047;SDS011;23227;48.780;9.210;2022-10-03T17:48:34;16.03;;;8.07;;
37047;SDS011;23227;48.780;9.210;2022-10-03T17:51:40;18.13;;;7.33;;
37047;SDS011;23227;48.780;9.210;2022-10-03T17:54:45;17.70;;;7.37;;
37047;SDS011;23227;48.780;9.210;2022-10-03T17:57:51;16.23;;;7.07;;
37047;SDS011;23227;48.780;9.210;2022-10-03T18:00:58;18.50;;;7.13;;
37047;SDS011;23227;48.780;9.210;2022-10-03T18:04:06;13.40;;;6.53;;
37047;SDS011;23227;48.780;9.210;2022-10-03T18:07:17;13.50;;;5.23;;
37047;SDS011;23227;48.780;9.210;2022-10-03T18:10:21;13.50;;;5.43;;
37047;SDS011;23227;48.780;9.210;2022-10-03T18:13:29;18.13;;;6.67;;
37047;SDS011;23227;48.780;9.210;2022-10-03T18:16:39;17.70;;;7.60;;
37047;SDS011;23227;48.780;9.210;2022-10-03T18:19:48;15.77;;;6.47;;
37047;SDS011;23227;48.780;9.210;2022-10-03T18:22:57;17.10;;;5.80;;
37047;SDS011;23227;48.780;9.210;2022-10-03T18:26:01;14.27;;;6.37;;
37047;SDS011;23227;48.780;9.210;2022-10-03T18:29:23;16.97;;;6.97;;
37047;SDS011;23227;48.780;9.210;2022-10-03T18:32:30;14.30;;;6.13;;
37047;SDS011;23227;48.780;9.210;2022-10-03T18:35:36;13.80;;;5.47;;
37047;SDS011;23227;48.780;9.210;2022-10-03T18:38:41;18.00;;;6.00;;
37047;SDS011;23227;48.780;9.210;2022-10-03T18:41:46;18.97;;;5.77;;
37047;SDS011;23227;48.780;9.210;2022-10-03T18:44:51;9.07;;;5.63;;
37047;SDS011;23227;48.780;9.210;2022-10-03T18:47:55;16.50;;;6.53;;
37047;SDS011;23227;48.780;9.210;2022-10-03T18:51:05;17.83;;;7.03;;
37047;SDS011;23227;48.780;9.210;2022-10-03T18:54:17;11.53;;;7.33;;
37047;SDS011;23227;48.780;9.210;2022-10-03T18:57:33;15.13;;;6.00;;
37047;SDS011;23227;48.780;9.210;2022-10-03T19:00:44;12.20;;;5.47;;
37047;SDS011;23227;48.780;9.210;2022-10-03T19:03:50;15.87;;;5.60;;
37047;SDS011;23227;48.780;9.210;2022-10-03T19:06:56;13.07;;;4.70;;
37047;SDS011;23227;48.780;9.210;2022-10-03T19:13:33;8.57;;;4.05;;
37047;SDS011;23227;48.780;9.210;2022-10-03T19:16:47;13.30;;;4.90;;
37047;SDS011;23227;48.780;9.210;2022-10-03T19:20:00;11.50;;;4.53;;
37047;SDS011;23227;48.780;9.210;2022-10-03T19:23:19;10.40;;;4.00;;
37047;SDS011;23227;48.780;9.210;2022-10-03T19:26:27;11.20;;;4.23;;
37047;SDS011;23227;48.780;9.210;2022-10-03T19:29:37;11.37;;;4.07;;
37047;SDS011;23227;48.780;9.210;2022-10-03T19:32:46;13.70;;;4.33;;
37047;SDS011;23227;48.780;9.210;2022-10-03T19:35:52;9.63;;;3.80;;
37047;SDS011;23227;48.780;9.210;2022-10-03T19:38:57;12.17;;;4.67;;
37047;SDS011;23227;48.780;9.210;2022-10-03T19:42:10;11.45;;;4.53;;
37047;SDS011;23227;48.780;9.210;2022-10-03T19:45:21;11.87;;;4.77;;
37047;SDS011;23227;48.780;9.210;2022-10-03T19:48:26;14.00;;;5.30;;
37047;SDS011;23227;48.780;9.210;2022-10-03T19:51:30;14.23;;;5.17;;
37047;SDS011;23227;48.780;9.210;2022-10-03T19:54:33;15.93;;;5.20;;
37047;SDS011;23227;48.780;9.210;2022-10-03T19:57:46;19.33;;;7.07;;
37047;SDS011;23227;48.780;9.210;2022-10-03T20:00:51;19.33;;;6.43;;
37047;SDS011;23227;48.780;9.210;2022-10-03T20:03:56;17.87;;;6.37;;
37047;SDS011;23227;48.780;9.210;2022-10-03T20:07:01;11.83;;;5.57;;
37047;SDS011;23227;48.780;9.210;2022-10-03T20:10:10;10.77;;;4.80;;
37047;SDS011;23227;48.780;9.210;2022-10-03T20:13:34;10.93;;;4.90;;
37047;SDS011;23227;48.780;9.210;2022-10-03T20:16:44;9.90;;;5.40;;
37047;SDS011;23227;48.780;9.210;2022-10-03T20:19:50;10.23;;;4.73;;
37047;SDS011;23227;48.780;9.210;2022-10-03T20:22:56;11.03;;;5.67;;
37047;SDS011;23227;48.780;9.210;2022-10-03T20:26:04;12.13;;;5.33;;
37047;SDS011;23227;48.780;9.210;2022-10-03T20:29:14;12.73;;;4.90;;
37047;SDS011;23227;48.780;9.210;2022-10-03T20:32:21;17.57;;;5.03;;
37047;SDS011;23227;48.780;9.210;2022-10-03T20:35:27;8.88;;;4.25;;
37047;SDS011;23227;48.780;9.210;2022-10-03T20:38:45;8.15;;;4.50;;
37047;SDS011;23227;48.780;9.210;2022-10-03T20:41:57;14.13;;;5.33;;
37047;SDS011;23227;48.780;9.210;2022-10-03T20:45:01;10.83;;;5.10;;
37047;SDS011;23227;48.780;9.210;2022-10-03T20:48:07;11.83;;;6.00;;
37047;SDS011;23227;48.780;9.210;2022-10-03T20:51:20;12.67;;;5.47;;
37047;SDS011;23227;48.780;9.210;2022-10-03T20:54:24;16.40;;;4.97;;
37047;SDS011;23227;48.780;9.210;2022-10-03T20:57:28;11.50;;;5.60;;
37047;SDS011;23227;48.780;9.210;2022-10-03T21:00:32;11.80;;;5.77;;
37047;SDS011;23227;48.780;9.210;2022-10-03T21:03:46;12.40;;;5.10;;
37047;SDS011;23227;48.780;9.210;2022-10-03T21:07:05;15.90;;;5.63;;
37047;SDS011;23227;48.780;9.210;2022-10-03T21:10:19;12.50;;;5.77;;
37047;SDS011;23227;48.780;9.210;2022-10-03T21:13:28;13.37;;;5.20;;
37047;SDS011;23227;48.780;9.210;2022-10-03T21:16:33;13.43;;;5.90;;
37047;SDS011;23227;48.780;9.210;2022-10-03T21:19:41;8.30;;;4.93;;
37047;SDS011;23227;48.780;9.210;2022-10-03T21:22:49;11.67;;;5.50;;
37047;SDS011;23227;48.780;9.210;2022-10-03T21:25:53;10.13;;;5.43;;
37047;SDS011;23227;48.780;9.210;2022-10-03T21:29:14;15.23;;;6.53;;
37047;SDS011;23227;48.780;9.210;2022-10-03T21:32:26;15.30;;;6.37;;
37047;SDS011;23227;48.780;9.210;2022-10-03T21:35:35;16.83;;;6.33;;
37047;SDS011;23227;48.780;9.210;2022-10-03T21:38:41;12.90;;;6.30;;
37047;SDS011;23227;48.780;9.210;2022-10-03T21:41:52;10.80;;;6.00;;
37047;SDS011;23227;48.780;9.210;2022-10-03T21:45:03;11.23;;;6.37;;
37047;SDS011;23227;48.780;9.210;2022-10-03T21:48:17;14.87;;;6.60;;